createdAt,value
2016-10-02T00:00:21.777Z,1023.44
2016-10-02T00:01:21.773Z,1023.41
2016-10-02T00:02:21.769Z,1023.47
2016-10-02T00:03:21.764Z,1023.48
2016-10-02T00:04:21.760Z,1023.48
2016-10-02T00:05:21.757Z,1023.53
2016-10-02T00:06:21.753Z,1023.52
2016-10-02T00:07:21.748Z,1023.58
2016-10-02T00:08:22.646Z,1023.57
2016-10-02T00:09:22.593Z,1023.6
2016-10-02T00:10:21.736Z,1023.62
2016-10-02T00:12:21.728Z,1023.66
2016-10-02T00:13:21.722Z,1023.69
2016-10-02T00:14:21.721Z,1023.74
2016-10-02T00:15:21.714Z,1023.78
2016-10-02T00:16:21.711Z,1023.78
2016-10-02T00:17:21.706Z,1023.76
2016-10-02T00:18:21.701Z,1023.76
2016-10-02T00:19:21.699Z,1023.68
2016-10-02T00:20:21.694Z,1023.68
2016-10-02T00:21:21.692Z,1023.65
2016-10-02T00:22:21.787Z,1023.56
2016-10-02T00:23:21.684Z,1023.57
2016-10-02T00:24:21.678Z,1023.51
2016-10-02T00:25:21.673Z,1023.62
2016-10-02T00:26:21.669Z,1023.6
2016-10-02T00:27:21.665Z,1023.59
2016-10-02T00:28:21.662Z,1023.57
2016-10-02T00:29:21.656Z,1023.55
2016-10-02T00:30:21.653Z,1023.63
2016-10-02T00:31:21.650Z,1023.72
2016-10-02T00:32:21.645Z,1023.75
2016-10-02T00:33:21.645Z,1023.79
2016-10-02T00:34:21.637Z,1023.8
2016-10-02T00:35:21.633Z,1023.8
2016-10-02T00:36:21.627Z,1023.79
2016-10-02T00:37:21.626Z,1023.91
2016-10-02T00:38:21.621Z,1023.95
2016-10-02T00:39:21.618Z,1024
2016-10-02T00:40:21.610Z,1024.09
2016-10-02T00:41:21.609Z,1024.08
2016-10-02T00:42:21.603Z,1024.15
2016-10-02T00:43:21.599Z,1024.19
2016-10-02T00:44:21.597Z,1024.27
2016-10-02T00:45:21.593Z,1024.36
2016-10-02T00:46:21.589Z,1024.41
2016-10-02T00:47:21.583Z,1024.49
2016-10-02T00:48:21.577Z,1024.54
2016-10-02T00:49:21.574Z,1024.54
2016-10-02T00:50:21.571Z,1024.62
2016-10-02T00:51:21.565Z,1024.74
2016-10-02T00:52:21.560Z,1024.76
2016-10-02T00:53:21.555Z,1024.8
2016-10-02T00:54:21.549Z,1024.84
2016-10-02T00:55:21.546Z,1024.88
2016-10-02T00:56:21.541Z,1024.91
2016-10-02T00:57:21.553Z,1024.94
2016-10-02T00:58:21.534Z,1024.98
2016-10-02T00:59:21.527Z,1025.07
2016-10-02T01:00:21.524Z,1025.08
2016-10-02T01:01:21.528Z,1025.12
2016-10-02T01:02:21.513Z,1025.13
2016-10-02T01:03:21.510Z,1025.18
2016-10-02T01:04:21.504Z,1025.23
2016-10-02T01:05:21.497Z,1025.25
2016-10-02T01:06:21.495Z,1025.29
2016-10-02T01:07:21.491Z,1025.31
2016-10-02T01:08:21.484Z,1025.32
2016-10-02T01:09:21.480Z,1025.38
2016-10-02T01:10:21.475Z,1025.38
2016-10-02T01:11:21.471Z,1025.43
2016-10-02T01:12:21.466Z,1025.48
2016-10-02T01:13:21.458Z,1025.5
2016-10-02T01:14:21.453Z,1025.52
2016-10-02T01:15:21.450Z,1025.54
2016-10-02T01:16:21.443Z,1025.61
2016-10-02T01:17:21.440Z,1025.61
2016-10-02T01:18:21.433Z,1025.66
2016-10-02T01:19:21.428Z,1025.64
2016-10-02T01:20:21.424Z,1025.69
2016-10-02T01:21:21.417Z,1025.76
2016-10-02T01:22:21.411Z,1025.81
2016-10-02T01:23:21.408Z,1025.83
2016-10-02T01:24:21.400Z,1025.84
2016-10-02T01:25:21.398Z,1025.88
2016-10-02T01:28:21.381Z,1025.94
2016-10-02T01:29:21.374Z,1025.97
2016-10-02T01:30:21.371Z,1025.98
2016-10-02T01:31:21.361Z,1025.99
2016-10-02T01:32:21.357Z,1026.02
2016-10-02T01:33:21.353Z,1026.03
2016-10-02T01:34:21.349Z,1026.06
2016-10-02T01:35:21.340Z,1026.08
2016-10-02T01:36:21.337Z,1026.07
2016-10-02T01:37:21.330Z,1026.16
2016-10-02T01:38:21.323Z,1026.17
2016-10-02T01:39:21.320Z,1026.18
2016-10-02T01:40:21.315Z,1026.19
2016-10-02T01:41:21.307Z,1026.2
2016-10-02T01:42:21.301Z,1026.19
2016-10-02T01:43:21.298Z,1026.24
2016-10-02T01:44:21.289Z,1026.27
2016-10-02T01:45:21.284Z,1026.26
2016-10-02T01:46:21.277Z,1026.26
2016-10-02T01:47:21.274Z,1026.29
2016-10-02T01:48:21.266Z,1026.29
2016-10-02T01:49:21.262Z,1026.31
2016-10-02T01:50:21.254Z,1026.28
2016-10-02T01:51:21.251Z,1026.3
2016-10-02T01:52:21.246Z,1026.3
2016-10-02T01:53:21.238Z,1026.35
2016-10-02T01:54:21.233Z,1026.37
2016-10-02T01:55:21.227Z,1026.39
2016-10-02T01:56:21.222Z,1026.41
2016-10-02T01:57:21.215Z,1026.45
2016-10-02T01:58:21.208Z,1026.43
2016-10-02T01:59:21.204Z,1026.48
2016-10-02T02:00:21.197Z,1026.53
2016-10-02T02:01:21.191Z,1026.51
2016-10-02T02:02:21.185Z,1026.55
2016-10-02T02:03:21.178Z,1026.59
2016-10-02T02:04:21.173Z,1026.62
2016-10-02T02:05:21.168Z,1026.66
2016-10-02T02:06:21.174Z,1026.69
2016-10-02T02:07:21.155Z,1026.7
2016-10-02T02:08:21.147Z,1026.71
2016-10-02T02:09:21.143Z,1026.74
2016-10-02T02:10:21.137Z,1026.8
2016-10-02T02:11:21.131Z,1026.77
2016-10-02T02:12:21.123Z,1026.77
2016-10-02T02:13:21.118Z,1026.76
2016-10-02T02:14:21.111Z,1026.74
2016-10-02T02:15:21.104Z,1026.75
2016-10-02T02:16:21.100Z,1026.73
2016-10-02T02:17:21.098Z,1026.74
2016-10-02T02:18:21.086Z,1026.76
2016-10-02T02:19:21.080Z,1026.75
2016-10-02T02:20:21.165Z,1026.77
2016-10-02T02:21:21.070Z,1026.8
2016-10-02T02:22:21.062Z,1026.78
2016-10-02T02:23:21.055Z,1026.77
2016-10-02T02:24:21.049Z,1026.8
2016-10-02T02:25:21.044Z,1026.81
2016-10-02T02:26:21.037Z,1026.78
2016-10-02T02:27:21.030Z,1026.79
2016-10-02T02:28:21.033Z,1026.77
2016-10-02T02:29:21.018Z,1026.76
2016-10-02T02:30:21.014Z,1026.77
2016-10-02T02:31:21.006Z,1026.79
2016-10-02T02:32:20.999Z,1026.8
2016-10-02T02:33:20.992Z,1026.77
2016-10-02T02:34:20.986Z,1026.75
2016-10-02T02:35:20.982Z,1026.73
2016-10-02T02:36:20.979Z,1026.8
2016-10-02T02:37:20.967Z,1026.79
2016-10-02T02:38:20.960Z,1026.83
2016-10-02T02:39:20.955Z,1026.87
2016-10-02T02:40:20.948Z,1026.86
2016-10-02T02:41:20.941Z,1026.96
2016-10-02T02:42:20.937Z,1026.93
2016-10-02T02:43:20.931Z,1026.91
2016-10-02T02:44:20.922Z,1026.91
2016-10-02T02:45:20.917Z,1026.92
2016-10-02T02:46:20.909Z,1026.9
2016-10-02T02:47:20.902Z,1026.92
2016-10-02T02:48:20.897Z,1026.93
2016-10-02T02:49:20.890Z,1026.94
2016-10-02T02:50:20.884Z,1026.95
2016-10-02T02:51:20.879Z,1026.96
2016-10-02T02:52:20.872Z,1026.98
2016-10-02T02:53:20.864Z,1027.01
2016-10-02T02:54:20.857Z,1027
2016-10-02T02:55:20.852Z,1027.04
2016-10-02T02:56:20.843Z,1027.05
2016-10-02T02:57:20.840Z,1027
2016-10-02T02:58:20.833Z,1027.04
2016-10-02T02:59:20.824Z,1027.04
2016-10-02T03:00:20.820Z,1027.04
2016-10-02T03:01:20.813Z,1027.01
2016-10-02T03:02:20.804Z,1027.05
2016-10-02T03:03:20.799Z,1027.06
2016-10-02T03:04:20.793Z,1027.07
2016-10-02T03:05:20.786Z,1027.05
2016-10-02T03:06:20.778Z,1027.1
2016-10-02T03:07:20.772Z,1027.11
2016-10-02T03:08:20.768Z,1027.13
2016-10-02T03:09:20.759Z,1027.16
2016-10-02T03:10:20.753Z,1027.12
2016-10-02T03:11:20.745Z,1027.12
2016-10-02T03:12:20.740Z,1027.18
2016-10-02T03:13:20.731Z,1027.15
2016-10-02T03:14:20.727Z,1027.18
2016-10-02T03:15:20.719Z,1027.19
2016-10-02T03:16:20.714Z,1027.14
2016-10-02T03:17:20.707Z,1027.15
2016-10-02T03:18:20.701Z,1027.2
2016-10-02T03:19:20.692Z,1027.21
2016-10-02T03:20:20.686Z,1027.23
2016-10-02T03:21:20.682Z,1027.25
2016-10-02T03:22:20.672Z,1027.22
2016-10-02T03:23:20.666Z,1027.22
2016-10-02T03:24:20.658Z,1027.23
2016-10-02T03:25:20.651Z,1027.2
2016-10-02T03:26:20.648Z,1027.21
2016-10-02T03:27:20.640Z,1027.19
2016-10-02T03:28:20.633Z,1027.15
2016-10-02T03:29:20.626Z,1027.15
2016-10-02T03:30:20.620Z,1027.2
2016-10-02T03:31:20.614Z,1027.2
2016-10-02T03:32:20.604Z,1027.17
2016-10-02T03:33:20.601Z,1027.19
2016-10-02T03:34:20.592Z,1027.2
2016-10-02T03:35:20.584Z,1027.28
2016-10-02T03:36:20.577Z,1027.27
2016-10-02T03:37:20.572Z,1027.32
2016-10-02T03:38:20.564Z,1027.33
2016-10-02T03:39:20.557Z,1027.32
2016-10-02T03:40:20.553Z,1027.38
2016-10-02T03:41:20.544Z,1027.37
2016-10-02T03:42:20.537Z,1027.41
2016-10-02T03:43:20.530Z,1027.36
2016-10-02T03:44:20.824Z,1027.42
2016-10-02T03:45:20.518Z,1027.39
2016-10-02T03:46:20.509Z,1027.42
2016-10-02T03:47:20.502Z,1027.44
2016-10-02T03:48:20.496Z,1027.46
2016-10-02T03:49:20.839Z,1027.51
2016-10-02T03:50:20.483Z,1027.52
2016-10-02T03:51:20.477Z,1027.54
2016-10-02T03:52:20.467Z,1027.52
2016-10-02T03:53:20.462Z,1027.52
2016-10-02T03:54:20.706Z,1027.53
2016-10-02T03:55:20.799Z,1027.51
2016-10-02T03:56:20.442Z,1027.54
2016-10-02T03:57:20.434Z,1027.56
2016-10-02T03:58:20.429Z,1027.49
2016-10-02T03:59:20.973Z,1027.55
2016-10-02T04:00:20.413Z,1027.52
2016-10-02T04:01:20.408Z,1027.51
2016-10-02T04:02:20.400Z,1027.51
2016-10-02T04:03:20.394Z,1027.5
2016-10-02T04:04:20.387Z,1027.51
2016-10-02T04:05:20.378Z,1027.47
2016-10-02T04:06:20.374Z,1027.49
2016-10-02T04:07:20.366Z,1027.5
2016-10-02T04:08:20.374Z,1027.49
2016-10-02T04:09:20.350Z,1027.5
2016-10-02T04:10:20.344Z,1027.49
2016-10-02T04:11:20.336Z,1027.52
2016-10-02T04:12:20.333Z,1027.53
2016-10-02T04:13:20.322Z,1027.51
2016-10-02T04:14:20.316Z,1027.48
2016-10-02T04:15:20.307Z,1027.45
2016-10-02T04:16:20.303Z,1027.51
2016-10-02T04:17:20.294Z,1027.5
2016-10-02T04:18:20.288Z,1027.5
2016-10-02T04:19:20.280Z,1027.51
2016-10-02T04:20:20.276Z,1027.52
2016-10-02T04:21:20.266Z,1027.54
2016-10-02T04:22:20.259Z,1027.55
2016-10-02T04:23:20.253Z,1027.53
2016-10-02T04:24:20.245Z,1027.53
2016-10-02T04:25:20.237Z,1027.55
2016-10-02T04:26:20.232Z,1027.55
2016-10-02T04:27:20.225Z,1027.53
2016-10-02T04:28:20.216Z,1027.51
2016-10-02T04:29:20.211Z,1027.55
2016-10-02T04:30:20.203Z,1027.56
2016-10-02T04:31:20.198Z,1027.54
2016-10-02T04:32:20.188Z,1027.58
2016-10-02T04:33:20.183Z,1027.59
2016-10-02T04:34:20.172Z,1027.6
2016-10-02T04:35:20.166Z,1027.6
2016-10-02T04:37:21.087Z,1027.59
2016-10-02T04:38:20.146Z,1027.66
2016-10-02T04:39:20.138Z,1027.63
2016-10-02T04:40:20.130Z,1027.67
2016-10-02T04:41:20.123Z,1027.64
2016-10-02T04:42:20.115Z,1027.62
2016-10-02T04:43:20.111Z,1027.62
2016-10-02T04:44:20.104Z,1027.66
2016-10-02T04:45:20.095Z,1027.67
2016-10-02T04:46:20.088Z,1027.63
2016-10-02T04:47:20.548Z,1027.65
2016-10-02T04:48:20.075Z,1027.6
2016-10-02T04:49:20.066Z,1027.65
2016-10-02T04:50:20.059Z,1027.64
2016-10-02T04:51:20.051Z,1027.65
2016-10-02T04:52:20.046Z,1027.7
2016-10-02T04:53:20.036Z,1027.72
2016-10-02T04:54:20.032Z,1027.69
2016-10-02T04:55:20.023Z,1027.68
2016-10-02T04:56:20.015Z,1027.68
2016-10-02T04:57:20.011Z,1027.69
2016-10-02T04:58:20.001Z,1027.7
2016-10-02T04:59:19.993Z,1027.68
2016-10-02T05:00:19.986Z,1027.67
2016-10-02T05:01:19.981Z,1027.73
2016-10-02T05:02:20.773Z,1027.7
2016-10-02T05:03:21.016Z,1027.7
2016-10-02T05:04:19.958Z,1027.7
2016-10-02T05:05:19.952Z,1027.72
2016-10-02T05:06:19.944Z,1027.68
2016-10-02T05:07:19.987Z,1027.72
2016-10-02T05:08:19.929Z,1027.75
2016-10-02T05:09:19.973Z,1027.72
2016-10-02T05:10:19.916Z,1027.74
2016-10-02T05:12:19.902Z,1027.79
2016-10-02T05:13:19.894Z,1027.79
2016-10-02T05:14:19.888Z,1027.84
2016-10-02T05:15:19.878Z,1027.85
2016-10-02T05:16:19.871Z,1027.86
2016-10-02T05:17:19.866Z,1027.84
2016-10-02T05:18:19.858Z,1027.78
2016-10-02T05:19:19.849Z,1027.78
2016-10-02T05:20:19.844Z,1027.77
2016-10-02T05:21:19.836Z,1027.81
2016-10-02T05:22:19.829Z,1027.8
2016-10-02T05:23:19.820Z,1027.73
2016-10-02T05:24:19.814Z,1027.72
2016-10-02T05:25:19.805Z,1027.7
2016-10-02T05:26:19.800Z,1027.74
2016-10-02T05:27:19.793Z,1027.76
2016-10-02T05:28:19.786Z,1027.76
2016-10-02T05:29:19.777Z,1027.73
2016-10-02T05:30:19.773Z,1027.73
2016-10-02T05:31:19.765Z,1027.68
2016-10-02T05:32:19.755Z,1027.73
2016-10-02T05:33:19.750Z,1027.7
2016-10-02T05:34:19.742Z,1027.61
2016-10-02T05:35:19.736Z,1027.58
2016-10-02T05:36:19.729Z,1027.55
2016-10-02T05:37:19.719Z,1027.44
2016-10-02T05:38:19.715Z,1027.3
2016-10-02T05:39:19.708Z,1027.25
2016-10-02T05:40:19.701Z,1027.08
2016-10-02T05:41:19.694Z,1027.02
2016-10-02T05:42:19.687Z,1026.91
2016-10-02T05:43:19.678Z,1026.76
2016-10-02T05:44:19.700Z,1026.66
2016-10-02T05:45:19.665Z,1026.53
2016-10-02T05:46:19.660Z,1026.46
2016-10-02T05:47:19.651Z,1026.34
2016-10-02T05:48:19.644Z,1026.25
2016-10-02T05:49:19.639Z,1026.15
2016-10-02T05:50:19.634Z,1026.07
2016-10-02T05:51:19.626Z,1026.02
2016-10-02T05:52:19.620Z,1025.95
2016-10-02T05:53:19.617Z,1025.85
2016-10-02T05:54:19.784Z,1025.8
2016-10-02T05:55:19.605Z,1025.73
2016-10-02T05:56:20.631Z,1025.58
2016-10-02T05:57:19.592Z,1025.5
2016-10-02T05:58:19.588Z,1025.36
2016-10-02T05:59:20.183Z,1025.28
2016-10-02T06:00:19.578Z,1025.18
2016-10-02T06:01:19.574Z,1025.07
2016-10-02T06:02:19.569Z,1024.96
2016-10-02T06:03:19.561Z,1024.89
2016-10-02T06:04:19.559Z,1024.75
2016-10-02T06:05:19.556Z,1024.68
2016-10-02T06:06:19.549Z,1024.56
2016-10-02T06:07:19.545Z,1024.5
2016-10-02T06:08:19.540Z,1024.42
2016-10-02T06:09:19.536Z,1024.31
2016-10-02T06:10:19.532Z,1024.19
2016-10-02T06:11:19.528Z,1024.15
2016-10-02T06:12:19.523Z,1024
2016-10-02T06:13:19.520Z,1023.91
2016-10-02T06:14:19.516Z,1023.76
2016-10-02T06:15:19.510Z,1023.67
2016-10-02T06:16:19.507Z,1023.5
2016-10-02T06:17:19.505Z,1023.39
2016-10-02T06:18:19.500Z,1023.29
2016-10-02T06:19:19.499Z,1023.18
2016-10-02T06:20:20.747Z,1023.09
2016-10-02T06:21:19.643Z,1023
2016-10-02T06:22:19.490Z,1022.97
2016-10-02T06:23:19.486Z,1022.93
2016-10-02T06:24:19.484Z,1022.8
2016-10-02T06:25:19.881Z,1022.75
2016-10-02T06:26:19.476Z,1022.61
2016-10-02T06:27:19.473Z,1022.46
2016-10-02T06:28:19.471Z,1022.38
2016-10-02T06:29:19.468Z,1022.25
2016-10-02T06:30:19.466Z,1022.19
2016-10-02T06:31:19.466Z,1022.09
2016-10-02T06:32:19.462Z,1022.05
2016-10-02T06:33:19.462Z,1021.95
2016-10-02T06:34:19.460Z,1021.89
2016-10-02T06:35:19.457Z,1021.84
2016-10-02T06:36:19.459Z,1021.78
2016-10-02T06:37:19.456Z,1021.71
2016-10-02T06:38:19.455Z,1021.66
2016-10-02T06:39:19.456Z,1021.58
2016-10-02T06:40:19.453Z,1021.58
2016-10-02T06:41:19.452Z,1021.51
2016-10-02T06:42:19.451Z,1021.43
2016-10-02T06:43:19.451Z,1021.35
2016-10-02T06:44:19.450Z,1021.26
2016-10-02T06:45:19.447Z,1021.22
2016-10-02T06:46:19.454Z,1021.2
2016-10-02T06:47:19.450Z,1021.08
2016-10-02T06:48:19.449Z,1021.02
2016-10-02T06:49:19.446Z,1020.94
2016-10-02T06:50:19.447Z,1020.89
2016-10-02T06:51:19.447Z,1020.82
2016-10-02T06:52:19.449Z,1020.71
2016-10-02T06:53:19.448Z,1020.62
2016-10-02T06:54:19.449Z,1020.52
2016-10-02T06:55:19.451Z,1020.42
2016-10-02T06:56:19.448Z,1020.35
2016-10-02T06:57:19.452Z,1020.25
2016-10-02T06:58:19.453Z,1020.14
2016-10-02T06:59:19.454Z,1020.02
2016-10-02T07:00:19.453Z,1019.99
2016-10-02T07:01:19.456Z,1019.92
2016-10-02T07:02:19.461Z,1019.84
2016-10-02T07:03:19.458Z,1019.79
2016-10-02T07:04:19.465Z,1019.72
2016-10-02T07:05:19.464Z,1019.65
2016-10-02T07:06:19.466Z,1019.65
2016-10-02T07:07:19.467Z,1019.66
2016-10-02T07:08:19.470Z,1019.6
2016-10-02T07:09:19.473Z,1019.52
2016-10-02T07:10:19.474Z,1019.51
2016-10-02T07:11:19.476Z,1019.49
2016-10-02T07:12:19.791Z,1019.49
2016-10-02T07:13:19.484Z,1019.48
2016-10-02T07:14:20.933Z,1019.44
2016-10-02T07:15:19.488Z,1019.46
2016-10-02T07:16:19.491Z,1019.59
2016-10-02T07:17:19.497Z,1019.71
2016-10-02T07:18:19.499Z,1019.79
2016-10-02T07:19:19.678Z,1019.92
2016-10-02T07:20:19.504Z,1019.98
2016-10-02T07:21:19.512Z,1019.99
2016-10-02T07:22:19.513Z,1020.08
2016-10-02T07:23:19.814Z,1020.07
2016-10-02T07:24:19.521Z,1020.08
2016-10-02T07:25:19.522Z,1020.07
2016-10-02T07:26:19.969Z,1020.03
2016-10-02T07:27:19.530Z,1019.91
2016-10-02T07:28:19.669Z,1019.83
2016-10-02T07:29:19.535Z,1019.8
2016-10-02T07:30:19.542Z,1019.68
2016-10-02T07:31:19.545Z,1019.68
2016-10-02T07:32:19.545Z,1019.59
2016-10-02T07:33:19.552Z,1019.5
2016-10-02T07:34:19.555Z,1019.51
2016-10-02T07:35:19.560Z,1019.6
2016-10-02T07:36:19.561Z,1019.66
2016-10-02T07:37:19.566Z,1019.74
2016-10-02T07:38:19.570Z,1019.71
2016-10-02T07:39:19.577Z,1019.76
2016-10-02T07:40:19.580Z,1019.75
2016-10-02T07:42:19.586Z,1019.89
2016-10-02T07:43:19.591Z,1020.24
2016-10-02T07:44:19.594Z,1020.61
2016-10-02T07:45:19.598Z,1020.99
2016-10-02T07:46:19.604Z,1021.35
2016-10-02T07:47:19.906Z,1021.7
2016-10-02T07:49:42.784Z,1022.35
2016-10-02T07:50:42.785Z,1022.5
2016-10-02T07:51:42.787Z,1022.7
2016-10-02T07:52:42.792Z,1022.89
2016-10-02T07:53:42.793Z,1022.98
2016-10-02T07:54:42.794Z,1023.07
2016-10-02T07:55:42.796Z,1023.08
2016-10-02T07:56:42.797Z,1023.12
2016-10-02T07:57:42.800Z,1023.15
2016-10-02T07:58:42.801Z,1023.18
2016-10-02T07:59:42.804Z,1023.23
2016-10-02T08:00:42.803Z,1023.24
2016-10-02T08:01:42.805Z,1023.27
2016-10-02T08:02:42.804Z,1023.26
2016-10-02T08:03:42.808Z,1023.25
2016-10-02T08:04:42.806Z,1023.28
2016-10-02T08:05:42.810Z,1023.33
2016-10-02T08:06:42.809Z,1023.39
2016-10-02T08:07:42.816Z,1023.41
2016-10-02T08:08:42.812Z,1023.49
2016-10-02T08:09:42.809Z,1023.6
2016-10-02T08:10:42.816Z,1023.71
2016-10-02T08:11:42.811Z,1023.8
2016-10-02T08:12:42.811Z,1023.99
2016-10-02T08:13:42.811Z,1024.01
2016-10-02T08:14:42.810Z,1023.97
2016-10-02T08:15:42.811Z,1024.01
2016-10-02T08:16:42.810Z,1023.89
2016-10-02T08:17:42.810Z,1023.98
2016-10-02T08:18:42.810Z,1023.84
2016-10-02T08:19:42.815Z,1023.7
2016-10-02T08:20:42.810Z,1023.63
2016-10-02T08:21:42.809Z,1023.58
2016-10-02T08:22:42.809Z,1023.59
2016-10-02T08:23:42.810Z,1023.54
2016-10-02T08:24:42.808Z,1023.47
2016-10-02T08:25:42.810Z,1023.45
2016-10-02T08:26:42.809Z,1023.34
2016-10-02T08:27:42.812Z,1023.33
2016-10-02T08:28:42.807Z,1023.36
2016-10-02T08:29:42.807Z,1023.41
2016-10-02T08:31:42.808Z,1023.53
2016-10-02T08:32:43.000Z,1023.58
2016-10-02T08:33:42.806Z,1023.51
2016-10-02T08:34:42.808Z,1023.51
2016-10-02T08:35:42.808Z,1023.53
2016-10-02T08:36:42.808Z,1023.49
2016-10-02T08:37:42.807Z,1023.45
2016-10-02T08:38:42.807Z,1023.41
2016-10-02T08:39:43.990Z,1023.32
2016-10-02T08:40:42.808Z,1023.25
2016-10-02T08:41:42.805Z,1023.17
2016-10-02T08:42:42.807Z,1023.13
2016-10-02T08:43:43.577Z,1023.2
2016-10-02T08:44:42.806Z,1023.32
2016-10-02T08:45:42.807Z,1023.46
2016-10-02T08:46:42.807Z,1023.51
2016-10-02T08:47:42.805Z,1023.5
2016-10-02T08:48:42.808Z,1023.42
2016-10-02T08:49:42.806Z,1023.38
2016-10-02T08:50:42.808Z,1023.33
2016-10-02T08:51:42.806Z,1023.28
2016-10-02T08:52:42.807Z,1023.38
2016-10-02T08:53:42.805Z,1023.39
2016-10-02T08:54:42.808Z,1023.39
2016-10-02T08:55:42.806Z,1023.41
2016-10-02T08:57:42.909Z,1023.52
2016-10-02T08:59:42.807Z,1023.74
2016-10-02T09:00:42.806Z,1023.8
2016-10-02T09:01:42.857Z,1023.85
2016-10-02T09:02:42.809Z,1024.02
2016-10-02T09:03:42.808Z,1024.14
2016-10-02T09:04:42.813Z,1024.17
2016-10-02T09:05:42.808Z,1024.19
2016-10-02T09:06:42.806Z,1024.21
2016-10-02T09:07:42.806Z,1024.2
2016-10-02T09:08:43.508Z,1024.2
2016-10-02T09:09:43.257Z,1024.23
2016-10-02T09:10:42.804Z,1024.21
2016-10-02T09:11:42.953Z,1024.28
2016-10-02T09:12:42.903Z,1024.38
2016-10-02T09:13:42.803Z,1024.4
2016-10-02T09:14:42.802Z,1024.55
2016-10-02T09:15:42.802Z,1024.68
2016-10-02T09:16:42.802Z,1024.74
2016-10-02T09:17:42.800Z,1024.84
2016-10-02T09:18:42.799Z,1024.92
2016-10-02T09:19:42.800Z,1024.94
2016-10-02T09:20:42.797Z,1024.95
2016-10-02T09:21:42.795Z,1025.01
2016-10-02T09:22:42.794Z,1025.03
2016-10-02T09:23:42.796Z,1025.1
2016-10-02T09:24:42.793Z,1025.15
2016-10-02T09:25:42.794Z,1025.13
2016-10-02T09:26:42.792Z,1025.12
2016-10-02T09:27:42.789Z,1025.17
2016-10-02T09:28:42.788Z,1025.19
2016-10-02T09:29:42.787Z,1025.21
2016-10-02T09:30:42.786Z,1025.21
2016-10-02T09:31:42.801Z,1025.21
2016-10-02T09:32:42.785Z,1025.21
2016-10-02T09:33:42.781Z,1025.23
2016-10-02T09:34:42.780Z,1025.25
2016-10-02T09:35:42.780Z,1025.17
2016-10-02T09:36:42.778Z,1025.1
2016-10-02T09:37:42.776Z,1025.08
2016-10-02T09:38:42.772Z,1025.1
2016-10-02T09:39:42.771Z,1025.08
2016-10-02T09:40:42.771Z,1025.06
2016-10-02T09:41:42.769Z,1025.05
2016-10-02T09:42:42.768Z,1025.02
2016-10-02T09:43:42.768Z,1024.97
2016-10-02T09:44:42.765Z,1024.87
2016-10-02T09:45:42.762Z,1024.93
2016-10-02T09:46:42.762Z,1024.89
2016-10-02T09:47:42.760Z,1024.92
2016-10-02T09:48:42.756Z,1024.98
2016-10-02T09:49:43.936Z,1025.09
2016-10-02T09:50:42.756Z,1025.11
2016-10-02T09:51:42.753Z,1025.13
2016-10-02T09:52:42.750Z,1025.09
2016-10-02T09:53:42.748Z,1025.02
2016-10-02T09:54:42.747Z,1025
2016-10-02T09:55:42.748Z,1025.01
2016-10-02T09:56:42.745Z,1024.99
2016-10-02T09:57:42.747Z,1024.92
2016-10-02T09:58:43.414Z,1024.75
2016-10-02T09:59:43.822Z,1024.69
2016-10-02T10:00:42.739Z,1024.49
2016-10-02T10:01:42.738Z,1024.37
2016-10-02T10:02:42.734Z,1024.32
2016-10-02T10:03:42.735Z,1024.23
2016-10-02T10:04:42.733Z,1024.08
2016-10-02T10:05:42.730Z,1023.96
2016-10-02T10:06:42.979Z,1023.91
2016-10-02T10:07:42.727Z,1023.87
2016-10-02T10:08:42.726Z,1023.81
2016-10-02T10:09:42.725Z,1023.68
2016-10-02T10:10:42.726Z,1023.61
2016-10-02T10:11:42.974Z,1023.58
2016-10-02T10:12:42.725Z,1023.6
2016-10-02T10:13:42.725Z,1023.71
2016-10-02T10:14:43.672Z,1023.72
2016-10-02T10:15:43.321Z,1023.7
2016-10-02T10:16:42.972Z,1023.6
2016-10-02T10:17:42.718Z,1023.6
2016-10-02T10:18:42.719Z,1023.64
2016-10-02T10:19:42.723Z,1023.55
2016-10-02T10:20:42.718Z,1023.48
2016-10-02T10:21:42.969Z,1023.35
2016-10-02T10:22:42.717Z,1023.25
2016-10-02T10:23:42.717Z,1023.2
2016-10-02T10:24:42.717Z,1023.22
2016-10-02T10:25:42.718Z,1023.13
2016-10-02T10:26:43.070Z,1023.12
2016-10-02T10:27:42.716Z,1023.12
2016-10-02T10:28:42.717Z,1023.14
2016-10-02T10:29:42.754Z,1023.16
2016-10-02T10:30:42.720Z,1023.17
2016-10-02T10:31:42.972Z,1023.23
2016-10-02T10:32:42.718Z,1023.29
2016-10-02T10:33:42.721Z,1023.29
2016-10-02T10:34:42.720Z,1023.35
2016-10-02T10:35:42.720Z,1023.35
2016-10-02T10:36:42.972Z,1023.37
2016-10-02T10:37:42.722Z,1023.38
2016-10-02T10:38:42.723Z,1023.39
2016-10-02T10:39:42.722Z,1023.42
2016-10-02T10:40:42.722Z,1023.46
2016-10-02T10:41:42.974Z,1023.39
2016-10-02T10:42:42.725Z,1023.38
2016-10-02T10:43:42.722Z,1023.3
2016-10-02T10:44:42.725Z,1023.16
2016-10-02T10:45:42.726Z,1023.11
2016-10-02T10:46:43.026Z,1023.19
2016-10-02T10:47:42.724Z,1023.13
2016-10-02T10:48:42.726Z,1023.14
2016-10-02T10:49:42.726Z,1023.25
2016-10-02T10:50:42.728Z,1023.19
2016-10-02T10:51:42.979Z,1023.16
2016-10-02T10:52:42.728Z,1023.06
2016-10-02T10:53:42.728Z,1023.01
2016-10-02T10:54:42.729Z,1022.95
2016-10-02T10:55:42.729Z,1022.87
2016-10-02T10:56:43.033Z,1022.85
2016-10-02T10:57:42.730Z,1022.84
2016-10-02T10:58:42.732Z,1022.78
2016-10-02T10:59:42.732Z,1022.84
2016-10-02T11:00:42.736Z,1022.82
2016-10-02T11:01:42.986Z,1022.86
2016-10-02T11:02:42.736Z,1022.89
2016-10-02T11:03:42.738Z,1022.84
2016-10-02T11:04:42.738Z,1022.86
2016-10-02T11:05:42.755Z,1022.76
2016-10-02T11:06:42.990Z,1022.78
2016-10-02T11:07:42.739Z,1022.81
2016-10-02T11:08:42.743Z,1022.87
2016-10-02T11:09:42.742Z,1022.94
2016-10-02T11:10:42.744Z,1023.01
2016-10-02T11:11:42.995Z,1023.01
2016-10-02T11:12:42.745Z,1022.99
2016-10-02T11:13:42.748Z,1023
2016-10-02T11:14:42.750Z,1023.05
2016-10-02T11:15:42.749Z,1023.2
2016-10-02T11:16:43.003Z,1023.34
2016-10-02T11:17:42.751Z,1023.37
2016-10-02T11:18:42.754Z,1023.39
2016-10-02T11:19:42.755Z,1023.48
2016-10-02T11:20:42.756Z,1023.59
2016-10-02T11:21:42.755Z,1023.64
2016-10-02T11:22:42.756Z,1023.58
2016-10-02T11:23:42.755Z,1023.47
2016-10-02T11:24:42.759Z,1023.54
2016-10-02T11:25:42.760Z,1023.53
2016-10-02T11:26:42.757Z,1023.63
2016-10-02T11:27:42.760Z,1023.7
2016-10-02T11:28:42.761Z,1023.78
2016-10-02T11:29:42.761Z,1023.86
2016-10-02T11:30:42.761Z,1023.98
2016-10-02T11:31:42.761Z,1024.06
2016-10-02T11:32:42.760Z,1024.08
2016-10-02T11:33:42.775Z,1024.05
2016-10-02T11:34:42.762Z,1023.99
2016-10-02T11:35:42.760Z,1023.94
2016-10-02T11:36:42.761Z,1023.96
2016-10-02T11:37:42.765Z,1023.94
2016-10-02T11:38:42.760Z,1023.97
2016-10-02T11:39:42.762Z,1023.85
2016-10-02T11:40:42.763Z,1023.77
2016-10-02T11:41:42.761Z,1023.73
2016-10-02T11:42:42.761Z,1023.74
2016-10-02T11:43:43.511Z,1023.77
2016-10-02T11:44:42.760Z,1023.85
2016-10-02T11:45:42.759Z,1023.88
2016-10-02T11:46:43.112Z,1023.89
2016-10-02T11:47:42.759Z,1023.94
2016-10-02T11:48:42.757Z,1023.92
2016-10-02T11:49:42.759Z,1024.06
2016-10-02T11:50:42.760Z,1024.01
2016-10-02T11:51:42.757Z,1023.88
2016-10-02T11:52:42.757Z,1023.73
2016-10-02T11:53:42.757Z,1023.81
2016-10-02T11:54:42.757Z,1023.71
2016-10-02T11:55:42.758Z,1023.7
2016-10-02T11:56:42.760Z,1023.64
2016-10-02T11:57:42.756Z,1023.66
2016-10-02T11:58:42.755Z,1023.63
2016-10-02T11:59:42.753Z,1023.62
2016-10-02T12:00:42.756Z,1023.59
2016-10-02T12:01:42.753Z,1023.52
2016-10-02T12:02:42.756Z,1023.61
2016-10-02T12:03:42.752Z,1023.63
2016-10-02T12:04:42.752Z,1023.63
2016-10-02T12:05:42.753Z,1023.64
2016-10-02T12:06:42.755Z,1023.64
2016-10-02T12:07:42.753Z,1023.62
2016-10-02T12:08:42.754Z,1023.65
2016-10-02T12:09:42.751Z,1023.67
2016-10-02T12:10:42.752Z,1023.58
2016-10-02T12:11:42.751Z,1023.53
2016-10-02T12:12:42.753Z,1023.55
2016-10-02T12:13:42.751Z,1023.56
2016-10-02T12:14:42.752Z,1023.57
2016-10-02T12:15:42.749Z,1023.53
2016-10-02T12:16:42.750Z,1023.48
2016-10-02T12:17:42.750Z,1023.36
2016-10-02T12:18:42.749Z,1023.32